Latest Weather Observations for Mandurah

IDW60801

Issued at 4:32 pm WST Friday 29 May 2015 (issued every 30 minutes, with the page automatically refreshed every 10 minutes)

About weather observations | Map of weather stations | Latest weather observations for WA | Other Formats
Station Details ID: 009977 Name: MANDURAH Lat: -32.52 Lon: 115.71 Height: 3.0 m
Data from the previous 72 hours. | See also: Recent months at Mandurah
Date/Time
WST
Temp
°C
App
Temp
°C
Dew
Point
Rel
Hum
%
Delta-T
°C
Wind Press
QNH
hPa
Press
MSL
hPa
Rain
since 9 am
mm
Dir
 
Spd
km/h
Gust
km/h
Spd
kts
Gust
kts
29/04:30pm 18.0 15.2 7.1 49 5.4 S 11 17 6 9 1024.0 1024.0 0.0
29/04:00pm 18.2 14.9 6.4 46 5.8 S 13 19 7 10 1023.9 1023.9 0.0
29/03:30pm 18.4 15.1 6.6 46 5.9 S 13 19 7 10 1023.9 1023.9 0.0
29/03:00pm 18.4 15.1 6.3 45 6.0 S 13 19 7 10 1023.9 1023.9 0.0
29/02:30pm 18.7 16.0 7.2 47 5.8 SSE 11 19 6 10 1023.8 1023.8 0.0
29/02:00pm 18.7 16.3 7.2 47 5.8 S 9 15 5 8 1024.0 1024.0 0.0
29/01:30pm 18.2 15.2 7.6 50 5.4 S 13 19 7 10 1024.2 1024.2 0.0
29/01:00pm 18.2 16.0 7.9 51 5.2 S 9 17 5 9 1024.5 1024.5 0.0
29/12:30pm 18.6 16.7 7.7 49 5.5 ESE 7 15 4 8 1025.0 1025.0 0.0
29/12:00pm 18.0 16.1 7.7 51 5.2 SE 7 20 4 11 1025.4 1025.4 0.0
29/11:30am 17.6 15.9 8.2 54 4.8 ESE 7 11 4 6 1025.8 1025.8 0.0
29/11:00am 17.2 15.1 8.1 55 4.6 E 9 13 5 7 1026.3 1026.3 0.0
29/10:30am 16.2 14.2 8.7 61 3.8 ESE 9 15 5 8 1026.7 1026.7 0.0
29/10:00am 14.6 12.0 7.9 64 3.3 ESE 11 17 6 9 1027.0 1027.0 0.0
29/09:30am 13.6 11.0 7.8 68 2.9 E 11 15 6 8 1026.9 1026.9 0.0
29/09:00am 12.5 9.5 7.6 72 2.4 E 13 20 7 11 1027.0 1027.0 0.0
29/08:30am 11.7 9.1 7.8 77 1.9 ESE 11 19 6 10 1026.9 1026.9 0.0
29/08:00am 10.2 8.3 7.6 84 1.2 SE 7 9 4 5 1026.7 1026.7 0.0
29/07:30am 9.3 7.5 7.3 87 0.9 SE 6 9 3 5 1026.4 1026.4 0.0
29/07:00am 9.3 7.5 7.3 87 0.9 SE 6 9 3 5 1026.3 1026.3 0.0
29/06:30am 9.3 7.4 7.4 88 0.9 SE 7 11 4 6 1026.1 1026.1 0.0
29/06:00am 9.1 7.2 7.4 89 0.8 SE 7 11 4 6 1025.9 1025.9 0.0
29/05:30am 8.9 6.9 7.0 88 0.9 ESE 7 9 4 5 1025.9 1025.9 0.0
29/05:00am 9.6 7.6 7.0 84 1.2 SE 7 9 4 5 1025.7 1025.7 0.0
29/04:30am 9.7 7.7 7.3 85 1.1 SE 7 11 4 6 1025.7 1025.7 0.0
29/04:00am 9.7 7.7 7.1 84 1.2 ESE 7 11 4 6 1025.5 1025.5 0.0
29/03:30am 9.8 7.9 6.7 81 1.4 ESE 6 6 3 3 1025.5 1025.5 0.0
29/03:00am 10.6 8.2 7.1 79 1.7 ESE 9 13 5 7 1025.5 1025.5 0.0
29/02:30am 10.8 8.0 7.1 78 1.8 ESE 11 15 6 8 1025.5 1025.5 0.0
29/02:00am 11.0 8.2 6.9 76 1.9 ESE 11 17 6 9 1025.5 1025.5 0.0
29/01:30am 11.2 8.7 6.7 74 2.1 ESE 9 15 5 8 1025.5 1025.5 0.0
29/01:00am 11.6 8.4 6.9 73 2.2 ESE 13 20 7 11 1025.4 1025.4 0.0
29/12:30am 12.0 8.4 6.9 71 2.4 ESE 15 20 8 11 1025.5 1025.5 0.0
29/12:00am 12.2 9.8 6.9 70 2.5 SE 9 11 5 6 1025.5 1025.5 0.0
 
Date/Time
WST
Temp
°C
App
Temp
°C
Dew
Point
Rel
Hum
%
Delta-T
°C
Wind Press
QNH
hPa
Press
MSL
hPa
Rain
since 9 am
mm
Dir
 
Spd
km/h
Gust
km/h
Spd
kts
Gust
kts
28/11:30pm 12.8 10.0 7.0 68 2.8 SE 11 13 6 7 1025.5 1025.5 0.0
28/11:00pm 12.9 10.5 7.1 68 2.8 SE 9 13 5 7 1025.4 1025.4 0.0
28/10:30pm 13.2 10.4 7.0 66 3.0 SE 11 15 6 8 1025.5 1025.5 0.0
28/10:00pm 13.3 10.2 7.1 66 3.0 SSE 13 19 7 10 1025.7 1025.7 0.0
28/09:30pm 13.4 10.7 7.4 67 2.9 SSE 11 17 6 9 1025.7 1025.7 0.0
28/09:00pm 13.5 10.3 6.8 64 3.2 SSE 13 19 7 10 1025.4 1025.4 0.0
28/08:30pm 13.7 10.5 7.0 64 3.3 SSE 13 19 7 10 1025.2 1025.2 0.0
28/08:00pm 13.9 11.1 7.0 63 3.3 SSE 11 17 6 9 1025.0 1025.0 0.0
28/07:30pm 14.1 11.2 6.5 60 3.7 SSE 11 17 6 9 1024.7 1024.7 0.0
28/07:00pm 14.5 11.2 6.3 58 3.9 SSE 13 19 7 10 1024.3 1024.3 0.0
28/06:30pm 14.8 10.6 5.9 55 4.3 SSE 17 24 9 13 1024.0 1024.0 0.0
28/06:00pm 15.3 11.8 5.5 52 4.6 SE 13 20 7 11 1023.6 1023.6 0.0
28/05:30pm 16.0 12.5 5.6 50 5.0 SE 13 22 7 12 1023.3 1023.3 0.0
28/05:00pm 16.8 13.4 5.7 48 5.3 SE 13 20 7 11 1023.0 1023.0 0.0
28/04:30pm 17.4 14.4 6.0 47 5.6 SSE 11 17 6 9 1022.9 1022.9 0.0
28/04:00pm 17.5 14.8 5.4 45 5.8 S 9 15 5 8 1022.8 1022.8 0.0
28/03:30pm 17.6 14.4 5.2 44 6.0 SSE 11 17 6 9 1022.7 1022.7 0.0
28/03:00pm 17.9 14.6 4.8 42 6.2 SSE 11 15 6 8 1022.8 1022.8 0.0
28/02:30pm 18.0 14.8 5.2 43 6.2 S 11 17 6 9 1022.9 1022.9 0.0
28/02:00pm 18.1 15.0 5.7 44 6.0 S 11 19 6 10 1023.0 1023.0 0.0
28/01:30pm 18.1 15.0 5.7 44 6.0 SSE 11 17 6 9 1023.1 1023.1 0.0
28/01:00pm 17.7 15.0 5.6 45 5.8 SSE 9 15 5 8 1023.4 1023.4 0.0
28/12:30pm 17.6 14.8 5.2 44 6.0 SSE 9 15 5 8 1023.7 1023.7 0.0
28/12:00pm 17.7 14.9 5.0 43 6.1 ESE 9 17 5 9 1024.1 1024.1 0.0
28/11:30am 17.1 14.1 6.0 48 5.4 SE 11 17 6 9 1024.4 1024.4 0.0
28/11:00am 16.3 13.9 7.0 54 4.6 SE 9 15 5 8 1024.8 1024.8 0.0
28/10:30am 16.2 13.8 6.9 54 4.6 SE 9 17 5 9 1024.9 1024.9 0.0
28/10:00am 15.1 13.6 8.6 65 3.3 SE 6 11 3 6 1025.0 1025.0 0.0
28/09:30am 14.5 12.7 8.0 65 3.2 SE 7 9 4 5 1025.0 1025.0 0.0
28/09:00am 13.5 11.4 8.1 70 2.7 SE 9 13 5 7 1024.8 1024.8 0.0
28/08:30am 13.1 10.9 9.4 78 1.9 SSE 11 17 6 9 1024.6 1024.6 0.0
28/08:00am 13.1 11.8 9.2 77 2.0 SSE 6 9 3 5 1024.2 1024.2 0.0
28/07:30am 12.7 11.1 8.8 77 2.0 SE 7 9 4 5 1023.9 1023.9 0.0
28/07:00am 12.5 11.0 9.1 80 1.7 SE 7 9 4 5 1023.5 1023.5 0.0
28/06:30am 12.6 11.1 9.2 80 1.7 SE 7 11 4 6 1023.2 1023.2 0.0
28/06:00am 12.4 10.5 9.2 81 1.6 SE 9 13 5 7 1022.9 1022.9 0.0
28/05:30am 12.2 10.3 9.2 82 1.5 SE 9 15 5 8 1022.7 1022.7 0.0
28/05:00am 11.8 9.8 8.6 81 1.6 SE 9 13 5 7 1022.6 1022.6 0.0
28/04:30am 11.3 9.5 7.8 79 1.7 SE 7 11 4 6 1022.5 1022.5 0.0
28/04:00am 11.4 9.1 7.5 77 1.9 SSE 9 13 5 7 1022.5 1022.5 0.0
28/03:30am 11.5 9.4 8.4 81 1.5 SE 9 13 5 7 1022.3 1022.3 0.0
28/03:00am 11.6 9.6 8.8 83 1.4 SSE 9 15 5 8 1022.4 1022.4 0.0
28/02:30am 10.9 8.6 7.4 79 1.7 SSE 9 13 5 7 1022.5 1022.5 0.0
28/02:00am 11.0 9.0 6.4 73 2.1 SSE 6 9 3 5 1022.4 1022.4 0.0
28/01:30am 10.9 10.1 6.5 74 2.1 CALM 0 0 0 0 1022.1 1022.1 0.0
28/01:00am 10.8 9.5 6.2 73 2.1 ENE 2 6 1 3 1022.1 1022.1 0.0
28/12:30am 10.7 9.0 5.9 72 2.2 ENE 4 6 2 3 1022.3 1022.3 0.0
28/12:00am 11.0 9.3 6.0 71 2.3 ENE 4 6 2 3 1022.3 1022.3 0.0
 
Date/Time
WST
Temp
°C
App
Temp
°C
Dew
Point
Rel
Hum
%
Delta-T
°C
Wind Press
QNH
hPa
Press
MSL
hPa
Rain
since 9 am
mm
Dir
 
Spd
km/h
Gust
km/h
Spd
kts
Gust
kts
27/11:30pm 11.7 10.1 6.2 69 2.6 SE 4 6 2 3 1022.4 1022.4 0.0
27/11:00pm 12.3 9.4 6.4 67 2.8 ENE 11 15 6 8 1022.2 1022.2 0.0
27/10:30pm 11.8 9.8 6.1 68 2.7 E 6 9 3 5 1022.3 1022.3 0.0
27/10:00pm 12.3 11.2 6.8 69 2.6 E 2 4 1 2 1022.4 1022.4 0.0
27/09:30pm 12.4 10.8 6.2 66 2.9 E 4 6 2 3 1022.5 1022.5 0.0
27/09:00pm 12.9 11.3 6.5 65 3.0 ESE 4 6 2 3 1022.4 1022.4 0.0
27/08:30pm 13.3 11.8 6.9 65 3.1 ESE 4 6 2 3 1022.3 1022.3 0.0
27/08:00pm 13.2 12.0 6.5 64 3.2 ESE 2 4 1 2 1022.2 1022.2 0.0
27/07:30pm 13.3 11.6 5.9 61 3.5 ESE 4 6 2 3 1022.1 1022.1 0.0
27/07:00pm 14.4 12.4 7.2 62 3.5 SE 7 9 4 5 1021.8 1021.8 0.0
27/06:30pm 15.0 13.6 7.1 59 3.9 SE 4 4 2 2 1021.6 1021.6 0.0
27/06:00pm 15.7 13.2 6.4 54 4.5 SE 9 13 5 7 1021.4 1021.4 0.0
27/05:30pm 16.3 13.8 6.7 53 4.7 SE 9 15 5 8 1021.3 1021.3 0.0
27/05:00pm 16.5 13.5 6.1 50 5.0 SSE 11 17 6 9 1021.3 1021.3 0.0
27/04:30pm 16.6 13.2 5.9 49 5.2 S 13 20 7 11 1021.3 1021.3 0.0
27/04:00pm 17.2 13.4 5.8 47 5.5 S 15 26 8 14 1021.2 1021.2 0.0
27/03:30pm 17.7 13.5 5.6 45 5.9 S 17 24 9 13 1021.1 1021.1 0.0
27/03:00pm 17.8 13.5 5.1 43 6.1 S 17 26 9 14 1021.1 1021.1 0.0
27/02:30pm 17.9 13.3 5.5 44 6.0 SSE 19 26 10 14 1021.2 1021.2 0.0
27/02:00pm 18.1 14.3 5.7 44 6.0 S 15 26 8 14 1021.4 1021.4 0.0
27/01:30pm 17.7 13.5 5.6 45 5.9 SSE 17 24 9 13 1021.6 1021.6 0.0
27/01:00pm 17.4 13.6 5.7 46 5.7 SSE 15 24 8 13 1021.9 1021.9 0.0
27/12:30pm 17.4 13.6 5.7 46 5.7 SSE 15 24 8 13 1022.4 1022.4 0.0
27/12:00pm 17.2 12.6 5.8 47 5.5 SE 19 26 10 14 1022.9 1022.9 0.0
27/11:30am 16.9 12.7 5.8 48 5.4 SE 17 28 9 15 1023.3 1023.3 0.0
27/11:00am 16.4 12.2 5.7 49 5.1 SE 17 28 9 15 1023.7 1023.7 0.0
27/10:30am 15.7 12.7 5.9 52 4.7 SE 11 19 6 10 1024.2 1024.2 0.0
27/10:00am 15.1 12.2 6.7 57 4.1 ESE 11 15 6 8 1024.3 1024.3 0.0
27/09:30am 14.1 12.0 6.7 61 3.6 SE 7 11 4 6 1024.4 1024.4 0.0
27/09:00am 12.8 11.3 8.5 75 2.1 ESE 6 9 3 5 1024.1 1024.1 0.0
27/08:30am 11.8 10.8 8.8 82 1.5 SE 4 6 2 3 1024.1 1024.1 0.0
27/08:00am 11.6 10.3 9.2 85 1.2 SE 6 6 3 3 1024.0 1024.0 0.0
27/07:30am 11.2 9.7 9.3 88 1.0 SE 7 9 4 5 1023.7 1023.7 0.0
27/07:00am 11.3 10.1 9.6 89 0.9 SE 6 9 3 5 1023.6 1023.6 0.0
27/06:30am 11.5 10.2 9.9 90 0.8 SSE 7 9 4 5 1023.1 1023.1 0.0
27/06:00am 11.6 10.2 9.5 87 1.1 SSE 7 9 4 5 1022.9 1022.9 0.0
27/05:30am 11.9 10.1 9.3 84 1.3 SE 9 11 5 6 1022.7 1022.7 0.0
27/05:00am 12.1 10.7 9.7 85 1.2 SE 7 11 4 6 1022.7 1022.7 0.0
27/04:30am 12.5 11.8 9.9 84 1.3 SSE 4 6 2 3 1022.8 1022.8 0.0
27/04:00am 12.6 11.3 9.2 80 1.7 SE 6 9 3 5 1022.7 1022.7 0.0
27/03:30am 12.9 11.5 9.4 79 1.8 SE 7 11 4 6 1022.8 1022.8 0.0
27/03:00am 12.6 11.2 9.6 82 1.5 SE 7 9 4 5 1022.9 1022.9 0.0
27/02:30am 12.8 11.6 9.6 81 1.6 ESE 6 7 3 4 1023.1 1023.1 0.0
27/02:00am 12.8 11.6 9.6 81 1.6 SE 6 9 3 5 1023.2 1023.2 0.0
27/01:30am 13.1 11.8 9.9 81 1.6 SE 7 11 4 6 1023.2 1023.2 0.0
27/01:00am 13.4 11.9 10.6 83 1.5 SSE 9 15 5 8 1023.3 1023.3 0.0
27/12:30am 13.4 11.9 10.6 83 1.5 SSE 9 15 5 8 1023.4 1023.4 0.0
27/12:00am 13.4 11.0 10.2 81 1.6 SE 13 20 7 11 1023.5 1023.5 0.0
 
Date/Time
WST
Temp
°C
App
Temp
°C
Dew
Point
Rel
Hum
%
Delta-T
°C
Wind Press
QNH
hPa
Press
MSL
hPa
Rain
since 9 am
mm
Dir
 
Spd
km/h
Gust
km/h
Spd
kts
Gust
kts
26/11:30pm 13.4 11.1 10.4 82 1.6 SSE 13 19 7 10 1023.8 1023.8 0.0
26/11:00pm 12.9 11.6 9.9 82 1.5 SE 7 9 4 5 1023.9 1023.9 0.0
26/10:30pm 13.2 11.2 10.0 81 1.6 SE 11 15 6 8 1024.0 1024.0 0.0
26/10:00pm 13.5 12.0 10.7 83 1.5 SE 9 15 5 8 1024.0 1024.0 0.0
26/09:30pm 14.1 12.1 11.4 84 1.4 SSE 13 19 7 10 1024.0 1024.0 0.0
26/09:00pm 14.3 12.3 11.6 84 1.4 SSE 13 19 7 10 1023.8 1023.8 0.0
26/08:30pm 14.8 12.4 11.4 80 1.8 S 15 22 8 12 1023.8 1023.8 0.0
26/08:00pm 15.2 13.9 11.4 78 2.0 SSE 9 15 5 8 1023.7 1023.7 0.0
26/07:30pm 15.5 13.8 11.3 76 2.3 S 11 15 6 8 1023.4 1023.4 0.0
26/07:00pm 15.8 14.8 12.4 80 1.9 S 9 13 5 7 1023.1 1023.1 0.0
26/06:30pm 16.1 15.5 12.3 78 2.1 S 7 11 4 6 1023.0 1023.0 0.0
26/06:00pm 16.2 14.8 12.2 77 2.2 S 11 20 6 11 1022.7 1022.7 0.0
26/05:30pm 16.9 14.7 12.2 74 2.6 SSW 15 24 8 13 1022.5 1022.5 0.0
26/05:00pm 17.8 17.7 10.9 64 3.7 S 2 6 1 3 1022.3 1022.3 0.0

Other Formats:

Comma delimited format used in spreadsheet applications
http://www.bom.gov.au/fwo/IDW60801/IDW60801.94605.axf

JavaScript Object Notation format (JSON) in row-major order
http://www.bom.gov.au/fwo/IDW60801/IDW60801.94605.json